Aviation Digital Data Service (ADDS)

Output produced by METARs form (2146 UTC 31 August 2015)
found at http://aviationweather.gov/adds/metars/
 
KPQI 312045Z 3121/0118 32010G18KT P6SM BKN050 
     FM010000 32010KT P6SM SCT050 
     FM010600 34006KT P6SM SCT200 
     FM011500 31006KT P6SM SCT050 AMD LTD TO CLD VIS AND WIND